createdAt,value
2018-03-24T00:01:13.957Z,19.03
2018-03-24T00:03:42.119Z,23.37
2018-03-24T00:06:10.307Z,21.87
2018-03-24T00:08:38.529Z,22.37
2018-03-24T00:11:06.645Z,20.30
2018-03-24T00:13:34.771Z,20.43
2018-03-24T00:16:02.955Z,21.57
2018-03-24T00:18:31.065Z,18.97
2018-03-24T00:20:59.163Z,22.83
2018-03-24T00:23:27.273Z,21.23
2018-03-24T00:25:55.403Z,23.77
2018-03-24T00:28:23.742Z,25.90
2018-03-24T00:30:51.903Z,28.83
2018-03-24T00:33:20.207Z,31.83
2018-03-24T00:35:48.342Z,30.13
2018-03-24T00:38:16.613Z,28.50
2018-03-24T00:40:44.853Z,32.60
2018-03-24T00:43:13.107Z,30.97
2018-03-24T00:45:41.360Z,42.07
2018-03-24T00:48:09.476Z,42.43
2018-03-24T00:50:37.790Z,42.37
2018-03-24T00:53:06.686Z,46.57
2018-03-24T00:55:34.802Z,43.97
2018-03-24T00:58:02.934Z,43.17
2018-03-24T01:00:31.044Z,50.23
2018-03-24T01:02:59.158Z,48.27
2018-03-24T01:05:27.314Z,66.67
2018-03-24T01:07:55.496Z,59.90
2018-03-24T01:10:23.638Z,66.23
2018-03-24T01:12:51.738Z,67.87
2018-03-24T01:15:19.889Z,96.23
2018-03-24T01:17:48.027Z,94.40
2018-03-24T01:20:16.134Z,92.07
2018-03-24T01:22:44.262Z,83.43
2018-03-24T01:25:12.399Z,110.73
2018-03-24T01:27:40.674Z,105.90
2018-03-24T01:30:08.848Z,100.00
2018-03-24T01:32:37.099Z,88.43
2018-03-24T01:35:05.325Z,104.73
2018-03-24T01:37:33.591Z,114.10
2018-03-24T01:40:01.801Z,101.37
2018-03-24T01:42:30.037Z,138.17
2018-03-24T01:44:58.703Z,128.87
2018-03-24T01:47:27.037Z,114.13
2018-03-24T01:49:55.201Z,143.73
2018-03-24T01:52:23.325Z,141.83
2018-03-24T01:54:51.445Z,126.10
2018-03-24T01:57:28.412Z,170.57
2018-03-24T01:59:56.619Z,183.33
2018-03-24T02:02:25.113Z,164.73
2018-03-24T02:04:53.235Z,163.77
2018-03-24T02:07:21.347Z,197.83
2018-03-24T02:09:49.515Z,191.87
2018-03-24T02:12:17.661Z,198.47
2018-03-24T02:14:45.801Z,209.27
2018-03-24T02:17:13.947Z,210.03
2018-03-24T02:19:42.249Z,240.33
2018-03-24T02:22:10.870Z,231.40
2018-03-24T02:27:45.331Z,232.43
2018-03-24T02:30:13.569Z,240.47
2018-03-24T02:32:41.764Z,213.07
2018-03-24T02:35:10.844Z,232.27
2018-03-24T02:37:39.188Z,215.53
2018-03-24T02:40:07.304Z,212.43
2018-03-24T02:42:35.444Z,200.40
2018-03-24T02:45:03.581Z,199.60
2018-03-24T02:47:32.339Z,190.70
2018-03-24T02:50:00.518Z,193.13
2018-03-24T02:52:29.396Z,168.50
2018-03-24T02:54:57.525Z,168.23
2018-03-24T02:57:25.645Z,170.23
2018-03-24T02:59:53.764Z,166.97
2018-03-24T03:02:21.946Z,167.93
2018-03-24T03:04:54.404Z,161.13
2018-03-24T03:07:22.512Z,166.60
2018-03-24T03:09:50.762Z,150.67
2018-03-24T03:12:18.883Z,148.80
2018-03-24T03:14:46.987Z,135.53
2018-03-24T03:17:15.130Z,149.77
2018-03-24T03:19:43.290Z,138.23
2018-03-24T03:22:11.411Z,144.93
2018-03-24T03:24:39.525Z,148.20
2018-03-24T03:27:07.649Z,149.97
2018-03-24T03:29:35.788Z,177.50
2018-03-24T03:32:18.799Z,153.50
2018-03-24T03:34:46.925Z,134.50
2018-03-24T03:37:15.049Z,173.60
2018-03-24T03:39:43.221Z,155.63
2018-03-24T03:42:11.383Z,158.23
2018-03-24T03:44:39.515Z,143.17
2018-03-24T03:47:07.655Z,153.17
2018-03-24T03:49:36.563Z,151.07
2018-03-24T03:52:04.720Z,130.13
2018-03-24T03:54:32.870Z,166.37
2018-03-24T03:57:01.087Z,150.20
2018-03-24T03:59:29.215Z,143.63
2018-03-24T04:02:01.624Z,144.63
2018-03-24T04:04:29.770Z,155.00
2018-03-24T04:07:02.232Z,138.63
2018-03-24T04:09:30.451Z,132.50
2018-03-24T04:11:58.624Z,139.33
2018-03-24T04:14:27.504Z,142.30
2018-03-24T04:16:55.632Z,142.37
2018-03-24T04:19:23.849Z,140.63
2018-03-24T04:21:51.956Z,142.93
2018-03-24T04:24:20.096Z,129.80
2018-03-24T04:26:48.218Z,145.70
2018-03-24T04:29:16.346Z,180.43
2018-03-24T04:31:44.495Z,142.43
2018-03-24T04:34:12.641Z,148.73
2018-03-24T04:36:40.858Z,148.93
2018-03-24T04:39:08.977Z,134.30
2018-03-24T04:41:37.097Z,133.40
2018-03-24T04:44:05.229Z,139.03
2018-03-24T04:46:33.593Z,147.20
2018-03-24T04:49:01.826Z,144.00
2018-03-24T04:51:34.306Z,165.20
2018-03-24T04:54:03.216Z,154.73
2018-03-24T04:56:31.378Z,139.90
2018-03-24T04:58:59.975Z,154.30
2018-03-24T05:01:28.108Z,124.97
2018-03-24T05:03:56.269Z,157.67
2018-03-24T05:06:24.421Z,135.30
2018-03-24T05:08:52.551Z,124.40
2018-03-24T05:11:20.844Z,151.53
2018-03-24T05:13:53.337Z,168.53
2018-03-24T05:16:21.478Z,192.97
2018-03-24T05:18:49.659Z,216.93
2018-03-24T05:21:18.142Z,234.90
2018-03-24T05:23:50.887Z,258.63
2018-03-24T05:26:19.083Z,293.63
2018-03-24T05:28:47.268Z,300.27
2018-03-24T05:31:15.413Z,303.40
2018-03-24T05:33:47.302Z,321.83
2018-03-24T05:36:24.644Z,295.57
2018-03-24T05:38:52.800Z,340.40
2018-03-24T05:41:20.940Z,318.13
2018-03-24T05:43:49.070Z,292.23
2018-03-24T05:46:19.348Z,289.77
2018-03-24T05:48:47.990Z,330.17
2018-03-24T05:51:16.205Z,333.47
2018-03-24T05:53:44.622Z,297.67
2018-03-24T05:56:12.829Z,293.10
2018-03-24T05:58:40.934Z,312.43
2018-03-24T06:01:09.137Z,282.27
2018-03-24T06:03:37.421Z,296.10
2018-03-24T06:06:05.695Z,293.57
2018-03-24T06:08:34.226Z,331.67
2018-03-24T06:11:03.179Z,336.93
2018-03-24T06:13:31.294Z,398.93
2018-03-24T06:15:59.418Z,395.13
2018-03-24T06:18:27.567Z,390.30
2018-03-24T06:20:55.669Z,441.20
2018-03-24T06:23:23.769Z,428.17
2018-03-24T06:25:51.884Z,386.80
2018-03-24T06:28:20.021Z,441.60
2018-03-24T06:30:52.644Z,441.03
2018-03-24T06:33:21.441Z,416.43
2018-03-24T06:35:49.581Z,410.20
2018-03-24T06:38:17.780Z,398.87
2018-03-24T06:40:45.912Z,397.50
2018-03-24T06:43:14.836Z,381.50
2018-03-24T06:45:43.652Z,359.93
2018-03-24T06:48:11.786Z,366.70
2018-03-24T06:50:39.935Z,330.93
2018-03-24T06:53:08.066Z,320.30
2018-03-24T06:55:36.214Z,310.67
2018-03-24T06:58:04.338Z,313.03
2018-03-24T07:00:32.609Z,281.30
2018-03-24T07:03:00.750Z,270.70
2018-03-24T07:05:28.892Z,217.80
2018-03-24T07:07:56.997Z,190.30
2018-03-24T07:10:25.118Z,133.40
2018-03-24T07:12:53.344Z,112.67
2018-03-24T07:15:21.466Z,104.93
2018-03-24T07:17:49.593Z,79.03
2018-03-24T07:20:17.712Z,82.73
2018-03-24T07:22:49.637Z,85.50
2018-03-24T07:25:17.748Z,78.40
2018-03-24T07:27:46.640Z,53.87
2018-03-24T07:30:14.761Z,48.37
2018-03-24T07:32:42.910Z,42.03
2018-03-24T07:35:11.399Z,36.17
2018-03-24T07:37:39.515Z,33.90
2018-03-24T07:40:07.625Z,33.97
2018-03-24T07:42:35.823Z,34.07
2018-03-24T07:45:03.957Z,25.47
2018-03-24T07:47:32.861Z,26.93
2018-03-24T07:50:01.057Z,26.27
2018-03-24T07:52:36.141Z,30.00
2018-03-24T07:55:04.285Z,25.33
2018-03-24T07:57:32.395Z,19.73
2018-03-24T08:00:00.579Z,22.43
2018-03-24T08:02:29.505Z,19.53
2018-03-24T08:04:57.620Z,22.87
2018-03-24T08:07:25.723Z,23.40
2018-03-24T08:09:53.841Z,23.70
2018-03-24T08:12:25.404Z,18.43
2018-03-24T08:14:53.558Z,17.40
2018-03-24T08:17:22.386Z,19.73
2018-03-24T08:19:50.510Z,19.57
2018-03-24T08:22:19.730Z,17.80
2018-03-24T08:24:47.856Z,15.53
2018-03-24T08:27:20.334Z,14.93
2018-03-24T08:29:48.484Z,12.60
2018-03-24T08:32:16.580Z,18.47
2018-03-24T08:34:48.874Z,13.93
2018-03-24T08:37:16.972Z,11.77
2018-03-24T08:39:45.084Z,10.40
2018-03-24T08:42:14.716Z,11.93
2018-03-24T08:44:43.861Z,11.20
2018-03-24T08:47:16.175Z,9.23
2018-03-24T08:49:48.185Z,8.93
2018-03-24T08:52:16.323Z,9.10
2018-03-24T08:54:44.445Z,9.50
2018-03-24T08:57:12.574Z,8.57
2018-03-24T08:59:40.695Z,8.97
2018-03-24T09:02:09.389Z,8.93
2018-03-24T09:04:37.502Z,8.57
2018-03-24T09:07:05.725Z,11.03
2018-03-24T09:09:34.262Z,9.70
2018-03-24T09:12:03.310Z,11.60
2018-03-24T09:14:31.739Z,10.17
2018-03-24T09:16:59.850Z,10.10
2018-03-24T09:19:27.968Z,7.90
2018-03-24T09:21:56.095Z,7.93
2018-03-24T09:24:24.233Z,8.27
2018-03-24T09:26:52.360Z,7.70
2018-03-24T09:29:21.286Z,7.13
2018-03-24T09:31:49.395Z,7.87
2018-03-24T09:34:21.339Z,7.90
2018-03-24T09:36:49.474Z,6.97
2018-03-24T09:39:17.616Z,7.80
2018-03-24T09:41:45.754Z,8.50
2018-03-24T09:44:13.898Z,9.93
2018-03-24T09:46:42.022Z,8.77
2018-03-24T09:49:10.141Z,8.80
2018-03-24T09:51:38.233Z,8.03
2018-03-24T09:54:06.359Z,8.43
2018-03-24T09:56:34.503Z,8.90
2018-03-24T09:59:02.636Z,9.00
2018-03-24T10:01:30.813Z,9.50
2018-03-24T10:03:58.971Z,9.07
2018-03-24T10:06:31.053Z,9.90
2018-03-24T10:08:59.188Z,9.83
2018-03-24T10:11:35.652Z,10.33
2018-03-24T10:14:03.818Z,12.50
2018-03-24T10:16:31.945Z,9.67
2018-03-24T10:19:00.397Z,10.37
2018-03-24T10:24:33.389Z,11.80
2018-03-24T10:27:01.519Z,10.60
2018-03-24T10:29:29.627Z,8.80
2018-03-24T10:31:57.807Z,8.63
2018-03-24T10:34:26.061Z,11.40
2018-03-24T10:36:54.309Z,9.97
2018-03-24T10:39:22.560Z,9.50
2018-03-24T10:41:54.680Z,11.47
2018-03-24T10:44:22.957Z,10.07
2018-03-24T10:46:55.032Z,10.93
2018-03-24T10:49:23.277Z,13.73
2018-03-24T10:51:51.502Z,10.23
2018-03-24T10:54:20.442Z,11.10
2018-03-24T10:56:49.210Z,11.47
2018-03-24T10:59:17.406Z,12.63
2018-03-24T11:01:46.362Z,10.13
2018-03-24T11:04:14.522Z,10.87
2018-03-24T11:06:44.057Z,11.03
2018-03-24T11:09:12.932Z,13.03
2018-03-24T11:11:41.082Z,11.20
2018-03-24T11:14:09.200Z,13.87
2018-03-24T11:16:37.326Z,12.03
2018-03-24T11:19:05.480Z,11.23
2018-03-24T11:21:33.661Z,11.33
2018-03-24T11:24:01.814Z,11.53
2018-03-24T11:26:29.950Z,11.60
2018-03-24T11:29:02.596Z,11.73
2018-03-24T11:31:31.501Z,10.30
2018-03-24T11:33:59.649Z,11.77
2018-03-24T11:36:27.836Z,11.43
2018-03-24T11:38:56.762Z,12.40
2018-03-24T11:41:24.975Z,11.57
2018-03-24T11:43:53.126Z,13.00
2018-03-24T11:46:21.257Z,10.77
2018-03-24T11:48:53.221Z,10.77
2018-03-24T11:51:21.465Z,10.53
2018-03-24T11:53:50.325Z,8.63
2018-03-24T11:56:19.312Z,8.87
2018-03-24T11:58:47.925Z,10.57
2018-03-24T12:01:16.124Z,11.27
2018-03-24T12:03:45.013Z,11.37
2018-03-24T12:06:14.943Z,13.87
2018-03-24T12:08:43.837Z,10.57
2018-03-24T12:11:12.723Z,9.77
2018-03-24T12:13:41.617Z,9.33
2018-03-24T12:16:10.573Z,9.67
2018-03-24T12:18:38.780Z,11.03
2018-03-24T12:21:07.814Z,10.03
2018-03-24T12:23:36.111Z,10.27
2018-03-24T12:26:04.241Z,10.47
2018-03-24T12:28:37.824Z,10.03
2018-03-24T12:31:05.969Z,10.77
2018-03-24T12:33:34.067Z,9.77
2018-03-24T12:36:02.266Z,9.93
2018-03-24T12:38:30.369Z,8.77
2018-03-24T12:41:02.711Z,10.57
2018-03-24T12:43:31.550Z,9.53
2018-03-24T12:45:59.671Z,10.30
2018-03-24T12:48:27.826Z,11.17
2018-03-24T12:50:55.960Z,12.43
2018-03-24T12:53:24.151Z,12.43
2018-03-24T12:55:52.324Z,10.30
2018-03-24T12:58:20.471Z,9.70
2018-03-24T13:00:48.592Z,10.00
2018-03-24T13:16:11.724Z,11.50
2018-03-24T13:18:40.644Z,11.17
2018-03-24T13:21:08.773Z,11.37
2018-03-24T13:23:36.917Z,10.27
2018-03-24T13:26:05.057Z,8.90
2018-03-24T13:28:33.167Z,11.37
2018-03-24T13:31:05.869Z,11.33
2018-03-24T13:33:34.859Z,11.40
2018-03-24T13:36:03.009Z,11.80
2018-03-24T13:38:31.297Z,12.43
2018-03-24T13:40:59.822Z,12.33
2018-03-24T13:43:27.948Z,11.73
2018-03-24T13:45:56.690Z,13.13
2018-03-24T13:48:25.479Z,13.93
2018-03-24T13:50:54.465Z,12.07
2018-03-24T13:53:22.705Z,13.90
2018-03-24T13:55:50.833Z,11.80
2018-03-24T13:58:18.980Z,12.53
2018-03-24T14:00:47.873Z,15.33
2018-03-24T14:03:16.008Z,11.47
2018-03-24T14:05:44.127Z,12.37
2018-03-24T14:08:12.303Z,13.17
2018-03-24T14:10:40.416Z,12.43
2018-03-24T14:13:08.520Z,11.33
2018-03-24T14:15:36.662Z,13.03
2018-03-24T14:18:04.763Z,10.67
2018-03-24T14:20:33.648Z,11.73
2018-03-24T14:23:01.800Z,11.33
2018-03-24T14:25:30.006Z,11.40
2018-03-24T14:27:58.886Z,12.97
2018-03-24T14:30:26.990Z,13.07
2018-03-24T14:32:55.136Z,11.57
2018-03-24T14:35:23.248Z,12.63
2018-03-24T14:37:51.384Z,12.37
2018-03-24T14:40:20.323Z,14.67
2018-03-24T14:42:48.456Z,12.13
2018-03-24T14:45:16.577Z,11.97
2018-03-24T14:47:44.688Z,13.43
2018-03-24T14:50:12.849Z,13.03
2018-03-24T14:52:40.993Z,11.83
2018-03-24T14:55:09.123Z,12.43
2018-03-24T14:57:37.284Z,11.63
2018-03-24T15:00:05.440Z,12.83
2018-03-24T15:02:33.583Z,13.23
2018-03-24T15:05:01.707Z,12.07
2018-03-24T15:07:29.875Z,12.60
2018-03-24T15:09:58.847Z,12.67
2018-03-24T15:12:27.020Z,12.37
2018-03-24T15:14:55.098Z,13.67
2018-03-24T15:17:23.228Z,12.57
2018-03-24T15:19:51.399Z,15.13
2018-03-24T15:22:19.534Z,14.33
2018-03-24T15:24:49.250Z,14.27
2018-03-24T15:27:17.447Z,12.93
2018-03-24T15:30:03.384Z,13.50
2018-03-24T15:35:35.746Z,13.37
2018-03-24T15:38:03.900Z,13.77
2018-03-24T15:40:32.042Z,13.93
2018-03-24T15:43:00.214Z,14.37
2018-03-24T15:45:28.334Z,16.60
2018-03-24T15:47:56.464Z,13.57
2018-03-24T15:50:24.630Z,16.00
2018-03-24T15:52:53.020Z,16.40
2018-03-24T15:55:21.181Z,15.87
2018-03-24T15:57:49.320Z,14.73
2018-03-24T16:00:17.449Z,18.03
2018-03-24T16:02:46.341Z,14.80
2018-03-24T16:05:14.495Z,17.50
2018-03-24T16:07:42.667Z,15.57
2018-03-24T16:10:12.003Z,17.13
2018-03-24T16:12:40.969Z,18.60
2018-03-24T16:15:09.114Z,16.93
2018-03-24T16:17:37.242Z,17.53
2018-03-24T16:20:06.186Z,16.77
2018-03-24T16:22:34.375Z,17.80
2018-03-24T16:25:06.336Z,17.00
2018-03-24T16:27:34.620Z,16.97
2018-03-24T16:30:02.838Z,17.27
2018-03-24T16:32:31.011Z,18.43
2018-03-24T16:34:59.138Z,17.53
2018-03-24T16:37:27.308Z,17.80
2018-03-24T16:39:56.316Z,20.17
2018-03-24T16:42:24.447Z,17.07
2018-03-24T16:44:52.654Z,17.47
2018-03-24T16:47:20.791Z,17.43
2018-03-24T16:49:48.950Z,19.60
2018-03-24T16:52:17.190Z,20.00
2018-03-24T16:54:45.376Z,18.27
2018-03-24T16:57:14.384Z,19.37
2018-03-24T16:59:44.297Z,19.43
2018-03-24T17:02:13.297Z,15.97
2018-03-24T17:04:42.194Z,18.07
2018-03-24T17:07:10.378Z,19.97
2018-03-24T17:09:38.498Z,19.30
2018-03-24T17:12:06.635Z,16.60
2018-03-24T17:14:34.769Z,18.07
2018-03-24T17:17:03.660Z,17.43
2018-03-24T17:19:32.687Z,19.77
2018-03-24T17:22:01.328Z,20.87
2018-03-24T17:24:29.784Z,19.93
2018-03-24T17:26:58.839Z,19.77
2018-03-24T17:29:26.977Z,17.90
2018-03-24T17:31:55.131Z,18.07
2018-03-24T17:34:23.645Z,19.53
2018-03-24T17:36:52.561Z,19.27
2018-03-24T17:39:20.690Z,20.33
2018-03-24T17:41:48.893Z,21.50
2018-03-24T17:44:17.798Z,20.57
2018-03-24T17:46:45.949Z,26.67
2018-03-24T17:49:14.091Z,21.57
2018-03-24T17:51:42.221Z,22.40
2018-03-24T17:54:10.356Z,23.47
2018-03-24T17:56:39.326Z,24.70
2018-03-24T17:59:07.624Z,22.07
2018-03-24T18:01:35.828Z,20.63
2018-03-24T18:04:04.727Z,20.63
2018-03-24T18:06:32.852Z,24.30
2018-03-24T18:09:01.068Z,22.00
2018-03-24T18:11:29.222Z,22.00
2018-03-24T18:13:57.326Z,19.77
2018-03-24T18:16:32.030Z,22.03
2018-03-24T18:19:03.554Z,26.57
2018-03-24T18:21:31.805Z,20.63
2018-03-24T18:24:00.550Z,27.37
2018-03-24T18:26:29.809Z,29.63
2018-03-24T18:28:58.063Z,26.07
2018-03-24T18:31:26.292Z,25.57
2018-03-24T18:33:54.653Z,25.40
2018-03-24T18:36:22.831Z,24.03
2018-03-24T18:38:51.305Z,24.20
2018-03-24T18:41:19.502Z,26.37
2018-03-24T18:43:50.148Z,24.97
2018-03-24T18:46:18.481Z,24.67
2018-03-24T18:48:47.308Z,24.23
2018-03-24T18:51:16.211Z,24.67
2018-03-24T18:53:45.970Z,25.40
2018-03-24T18:56:14.099Z,22.43
2018-03-24T18:58:42.247Z,20.63
2018-03-24T19:01:12.459Z,21.97
2018-03-24T19:03:41.250Z,20.43
2018-03-24T19:06:09.430Z,22.00
2018-03-24T19:08:38.148Z,22.73
2018-03-24T19:11:06.613Z,23.67
2018-03-24T19:13:34.850Z,22.53
2018-03-24T19:16:02.988Z,19.07
2018-03-24T19:18:31.191Z,29.08
2018-03-24T19:20:59.325Z,21.50
2018-03-24T19:23:27.600Z,20.33
2018-03-24T19:25:55.889Z,20.97
2018-03-24T19:28:24.165Z,19.87
2018-03-24T19:30:52.318Z,20.17
2018-03-24T19:33:21.266Z,23.20
2018-03-24T19:35:49.404Z,20.27
2018-03-24T19:38:18.684Z,24.20
2018-03-24T19:40:47.392Z,18.87
2018-03-24T19:43:15.562Z,20.57
2018-03-24T19:45:43.712Z,18.10
2018-03-24T19:48:11.868Z,16.23
2018-03-24T19:50:40.039Z,18.80
2018-03-24T19:53:08.236Z,16.00
2018-03-24T19:55:36.453Z,22.50
2018-03-24T19:58:04.660Z,18.20
2018-03-24T20:00:32.835Z,17.63
2018-03-24T20:03:01.013Z,18.43
2018-03-24T20:05:29.140Z,17.67
2018-03-24T20:07:57.320Z,16.83
2018-03-24T20:10:25.483Z,15.83
2018-03-24T20:12:54.369Z,15.83
2018-03-24T20:15:23.271Z,15.20
2018-03-24T20:17:58.300Z,21.90
2018-03-24T20:20:26.438Z,19.33
2018-03-24T20:22:54.603Z,17.67
2018-03-24T20:25:22.725Z,19.53
2018-03-24T20:27:50.895Z,20.87
2018-03-24T20:30:19.038Z,22.83
2018-03-24T20:32:47.173Z,18.43
2018-03-24T20:35:15.303Z,20.83
2018-03-24T20:37:44.308Z,18.97
2018-03-24T20:40:12.484Z,19.20
2018-03-24T20:42:40.625Z,17.17
2018-03-24T20:45:08.826Z,23.00
2018-03-24T20:47:36.994Z,23.77
2018-03-24T20:50:05.955Z,24.73
2018-03-24T20:52:34.128Z,22.37
2018-03-24T20:55:02.357Z,24.63
2018-03-24T20:57:30.682Z,20.90
2018-03-24T20:59:58.857Z,22.13
2018-03-24T21:02:27.044Z,20.63
2018-03-24T21:04:55.706Z,24.73
2018-03-24T21:07:23.998Z,25.67
2018-03-24T21:09:52.912Z,31.10
2018-03-24T21:12:21.945Z,25.10
2018-03-24T21:14:50.067Z,24.47
2018-03-24T21:17:19.027Z,21.30
2018-03-24T21:19:47.160Z,23.33
2018-03-24T21:22:16.448Z,22.67
2018-03-24T21:24:45.412Z,24.47
2018-03-24T21:27:17.611Z,23.30
2018-03-24T21:29:46.749Z,27.87
2018-03-24T21:32:14.961Z,21.10
2018-03-24T21:34:43.261Z,26.07
2018-03-24T21:37:12.466Z,24.03
2018-03-24T21:39:41.611Z,24.53
2018-03-24T21:42:09.890Z,24.07
2018-03-24T21:44:38.079Z,23.27
2018-03-24T21:47:06.262Z,20.40
